Bombala Post Office, New South Wales

3:42 AM EST on July 24, 2014 (GMT +1000)
Cooma Snowy Mountains Airport, NSW (YCOM) Elev 3087 ft | 36.30 °S, 148.97 °E | Change Station

Current weather conditions updated 42 minutes ago

Clear
Clear
23 °F
Feels Like 13 °F
N
9
Wind Variable Wind from NE

Today is forecast to be Much Warmer than yesterday.

Today
High -- | Low -- °F
--% Chance of Precip.
Yesterday
High -- | Low -- °F
Precip. -- in
7:08 AM 5:11 PM
Waning Crescent, 9% visible
Pressure 30.09 in
Visibility 6.2 miles
Clouds
Windchill 13 °F
Dew Point 23 °F
Humidity 100%
Rainfall 0.00 in
Snow Depth Not available.
UV Not available.
Pollen Not available.
Air Quality Not available.
Flu Activity Not available.
METAR YCOM 231700Z AUTO 04008KT 9999 // NCD M05/M05 Q1019

More Conditions Fewer Conditions

Pressure 30.09 in
Visibility 6.2 miles
Clouds
Windchill 13 °F
Dew Point 23 °F
Humidity 100%
Rainfall 0.00 in
Snow Depth Not available.
UV Not available.
Pollen Not available.
Air Quality Not available.
Flu Activity Not available.
METAR YCOM 231700Z AUTO 04008KT 9999 // NCD M05/M05 Q1019

More Conditions Fewer Conditions

10-Day Weather Forecast

Almanac

Astronomy

Jul. 24, 2014 Rise Set
Actual Time 7:08 AM EST 5:11 PM EST
Civil Twilight 6:40 AM EST 5:39 PM EST
Nautical Twilight 6:08 AM EST 6:10 PM EST
Astronomical Twilight 5:37 AM EST 6:41 PM EST
Moon 4:39 AM EST (7/24) 3:00 PM EST (7/24)
Length of Visible Light 10h 58m
Length of Day
10h 02m
Tomorrow will be 1m 27s longer.
Waning Crescent, 9% of the Moon is Illuminated
Jul 23
Waning Crescent
Jul 26
New
Aug 3
First Quarter
Aug 10
Full
Aug 17
Last Quarter

Yesterday's Extremes

Country Highs Country Lows

Community

WunderPhotos

Upload Photos

1,736,689 photos uploaded!

Nearby

Snow Depth

Not available.

Earthquake Activity

City Distance Mag. Time & Date
No recent earthquake activity has been reported nearby.
Minimum magnitude displayed is 2.5.

Coastal Water Temperatures

Place Temperature
No Stations Reporting

Nearby Weather Stations

There are no personal weather stations in this area.